Time;durP1;ratioP1;P1;durP2;ratioP2;P2;SDS_P1;SDS_P2;PMS_P1;PMS_P2;Temp;Humidity;BMP_temperature;BMP_pressure;BME280_temperature;BME280_humidity;BME280_pressure;Samples;Min_cycle;Max_cycle;Signal;HPM_P1;HPM_P2
2022/08/22 00:01:24;;;;;;;4.78;4.38;;;23.10;47.90;;;;;;5030254;28;20208;-86
2022/08/22 00:04:09;;;;;;;5.38;4.38;;;23.10;48.70;;;;;;5023903;28;20197;-87
2022/08/22 00:06:56;;;;;;;4.97;4.53;;;23.10;49.10;;;;;;5022147;28;20284;-87
2022/08/22 00:09:40;;;;;;;4.63;4.15;;;22.80;49.70;;;;;;5025582;28;20181;-88
2022/08/22 00:12:19;;;;;;;6.00;4.70;;;22.70;50.40;;;;;;5029405;28;20181;-87
2022/08/22 00:14:47;;;;;;;4.85;4.35;;;22.40;52.20;;;;;;5025684;28;20175;-88
2022/08/22 00:18:01;;;;;;;5.03;4.53;;;22.30;52.50;;;;;;5025416;28;20192;-87
2022/08/22 00:20:36;;;;;;;8.02;4.70;;;22.40;52.80;;;;;;4975054;28;20223;-88
2022/08/22 00:23:14;;;;;;;4.85;4.07;;;22.50;53.10;;;;;;5028600;28;20172;-87
2022/08/22 00:26:06;;;;;;;5.35;4.40;;;22.40;53.40;;;;;;5024945;28;20185;-87
2022/08/22 00:28:49;;;;;;;5.05;4.45;;;22.30;54.10;;;;;;5016153;28;20296;-87
2022/08/22 00:31:25;;;;;;;5.30;4.03;;;22.40;53.90;;;;;;5023117;28;20211;-88
2022/08/22 00:34:01;;;;;;;4.75;4.35;;;22.50;53.80;;;;;;5026505;28;20246;-87
2022/08/22 00:36:44;;;;;;;4.82;3.97;;;22.50;53.20;;;;;;5025365;28;20199;-87
2022/08/22 00:39:34;;;;;;;4.55;4.15;;;22.50;52.90;;;;;;5022191;28;20184;-87
2022/08/22 00:42:25;;;;;;;6.07;4.50;;;22.60;52.80;;;;;;5024721;28;20185;-86
2022/08/22 00:45:11;;;;;;;6.85;4.63;;;22.70;52.50;;;;;;5020767;28;20181;-87
2022/08/22 00:47:48;;;;;;;5.00;4.35;;;22.70;53.00;;;;;;5030446;28;20212;-87
2022/08/22 00:50:37;;;;;;;5.20;4.70;;;22.50;54.40;;;;;;5031152;28;20217;-87
2022/08/22 00:53:23;;;;;;;4.13;3.83;;;22.40;54.60;;;;;;4998461;28;20292;-87
2022/08/22 00:56:01;;;;;;;5.15;4.70;;;22.50;54.30;;;;;;5027795;28;20174;-88
2022/08/22 00:59:04;;;;;;;5.03;4.53;;;22.40;54.30;;;;;;5028088;28;20681;-88
2022/08/22 01:01:44;;;;;;;4.68;4.38;;;22.50;54.00;;;;;;5028900;28;20214;-87
2022/08/22 01:04:33;;;;;;;5.85;4.45;;;22.60;54.10;;;;;;5027291;28;20188;-87
2022/08/22 01:07:24;;;;;;;4.82;4.43;;;22.60;54.20;;;;;;5034458;28;20201;-87
2022/08/22 01:10:15;;;;;;;4.32;3.92;;;22.60;54.00;;;;;;5044666;28;20205;-89
2022/08/22 01:13:12;;;;;;;4.45;4.15;;;22.60;54.00;;;;;;5034140;28;20211;-87
2022/08/22 01:15:39;;;;;;;4.70;4.40;;;22.70;54.40;;;;;;5029758;28;20195;-87
2022/08/22 01:18:13;;;;;;;5.20;4.70;;;22.60;54.10;;;;;;5036464;28;20204;-86
2022/08/22 01:21:16;;;;;;;4.88;4.47;;;22.60;54.40;;;;;;5036670;28;20209;-87
2022/08/22 01:23:47;;;;;;;4.80;4.40;;;22.60;54.70;;;;;;5030449;28;20180;-87
2022/08/22 01:26:38;;;;;;;4.85;4.45;;;22.50;55.50;;;;;;5034237;28;20193;-86
2022/08/22 01:29:41;;;;;;;4.25;3.95;;;22.40;56.70;;;;;;5027791;28;20239;-88
2022/08/22 01:32:44;;;;;;;4.80;4.40;;;22.30;56.30;;;;;;5028338;28;20232;-87
2022/08/22 01:35:27;;;;;;;4.80;4.40;;;22.20;56.10;;;;;;5028348;28;20243;-87
2022/08/22 01:38:05;;;;;;;5.03;4.63;;;22.40;55.80;;;;;;5026630;28;20724;-88
2022/08/22 01:40:39;;;;;;;4.75;4.18;;;22.30;56.20;;;;;;5028180;28;20615;-87
2022/08/22 01:43:20;;;;;;;4.75;4.45;;;22.30;55.80;;;;;;5031860;28;20207;-87
2022/08/22 01:46:11;;;;;;;4.93;4.50;;;22.20;56.60;;;;;;5030563;28;20191;-86
2022/08/22 01:48:46;;;;;;;5.15;4.57;;;22.20;57.20;;;;;;5026347;28;20272;-87
2022/08/22 01:51:44;;;;;;;4.97;4.57;;;22.10;57.20;;;;;;5030221;28;20304;-88
2022/08/22 01:54:53;;;;;;;4.85;4.45;;;22.20;57.00;;;;;;5001073;28;20242;-87
2022/08/22 01:57:21;;;;;;;4.90;4.50;;;22.20;56.90;;;;;;4967600;28;20218;-88
2022/08/22 01:59:51;;;;;;;4.70;4.22;;;22.10;57.40;;;;;;5036170;28;20754;-87
2022/08/22 02:02:52;;;;;;;5.05;4.72;;;22.00;57.80;;;;;;5033397;28;20310;-87
2022/08/22 02:05:26;;;;;;;4.88;4.47;;;22.00;57.40;;;;;;5030981;28;20209;-87
2022/08/22 02:08:02;;;;;;;5.55;5.07;;;22.00;57.90;;;;;;5037256;28;20228;-86
2022/08/22 02:11:00;;;;;;;6.10;4.45;;;22.00;57.70;;;;;;5027859;28;20281;-87
2022/08/22 02:13:53;;;;;;;5.35;4.85;;;22.00;57.60;;;;;;5026448;28;20162;-88
2022/08/22 02:16:39;;;;;;;5.57;5.07;;;21.80;57.50;;;;;;5026196;28;20197;-86
2022/08/22 02:19:19;;;;;;;4.85;4.50;;;21.70;58.20;;;;;;5026204;28;20178;-87
2022/08/22 02:21:55;;;;;;;5.15;4.65;;;21.50;59.20;;;;;;5024274;28;20265;-87
2022/08/22 02:24:42;;;;;;;4.88;4.57;;;21.50;59.00;;;;;;5029971;28;20175;-87
2022/08/22 02:27:30;;;;;;;4.93;4.53;;;21.50;59.20;;;;;;5024371;28;20197;-87
2022/08/22 02:30:07;;;;;;;5.18;4.78;;;21.50;59.30;;;;;;5027305;28;20262;-87
2022/08/22 02:32:39;;;;;;;5.57;5.07;;;21.50;59.40;;;;;;5027429;28;20191;-85
2022/08/22 02:35:15;;;;;;;4.97;4.57;;;21.50;58.90;;;;;;5031793;28;20211;-87
2022/08/22 02:38:15;;;;;;;4.88;4.47;;;21.50;59.70;;;;;;5024061;28;20684;-86
2022/08/22 02:40:50;;;;;;;5.13;4.47;;;21.60;59.50;;;;;;5024905;28;20295;-88
2022/08/22 02:43:38;;;;;;;4.75;4.40;;;21.60;58.80;;;;;;5030723;28;20187;-87
2022/08/22 02:46:13;;;;;;;5.30;4.80;;;21.60;58.70;;;;;;5029842;28;20684;-88
2022/08/22 02:48:57;;;;;;;5.35;4.95;;;21.60;58.30;;;;;;5027611;28;20250;-87
2022/08/22 02:51:29;;;;;;;5.18;4.78;;;21.70;58.20;;;;;;5030962;28;20209;-87
2022/08/22 02:54:21;;;;;;;5.75;4.93;;;21.60;58.30;;;;;;5025846;28;20641;-87
2022/08/22 02:57:25;;;;;;;5.50;5.00;;;21.50;58.60;;;;;;5025217;28;20205;-87
2022/08/22 03:00:25;;;;;;;5.18;4.78;;;21.50;58.40;;;;;;5025739;28;20215;-86
2022/08/22 03:03:18;;;;;;;5.65;4.70;;;21.50;58.60;;;;;;5026395;28;20182;-88
2022/08/22 03:05:43;;;;;;;5.80;5.00;;;21.40;57.70;;;;;;5025000;28;20683;-87
2022/08/22 03:08:22;;;;;;;5.18;4.78;;;21.20;58.60;;;;;;5027901;28;20892;-87
2022/08/22 03:11:07;;;;;;;4.95;4.55;;;21.20;58.80;;;;;;5026036;28;20259;-87
2022/08/22 03:13:55;;;;;;;6.03;4.75;;;21.20;58.70;;;;;;5025694;28;20667;-87
2022/08/22 03:16:37;;;;;;;4.90;4.45;;;21.20;58.80;;;;;;5027596;28;20303;-87
2022/08/22 03:19:10;;;;;;;19.60;5.70;;;21.20;58.70;;;;;;5028350;28;20176;-87
2022/08/22 03:21:43;;;;;;;13.30;5.35;;;21.10;58.70;;;;;;5028263;28;20605;-87
2022/08/22 03:24:18;;;;;;;8.15;4.85;;;21.20;58.60;;;;;;5026796;28;20181;-87
2022/08/22 03:26:52;;;;;;;6.82;4.70;;;21.20;58.40;;;;;;5023317;28;20208;-86
2022/08/22 03:29:24;;;;;;;6.03;4.90;;;21.10;58.60;;;;;;5026782;28;20264;-87
2022/08/22 03:32:07;;;;;;;9.00;4.75;;;21.10;58.90;;;;;;5027175;28;20550;-88
2022/08/22 03:34:33;;;;;;;10.13;5.60;;;21.00;59.20;;;;;;5027915;28;20184;-87
2022/08/22 03:37:05;;;;;;;6.35;4.78;;;20.90;59.60;;;;;;5025953;28;20599;-86
2022/08/22 03:39:49;;;;;;;6.30;4.55;;;20.90;59.80;;;;;;5026003;28;20235;-87
2022/08/22 03:42:14;;;;;;;6.32;4.57;;;20.90;59.40;;;;;;5022170;28;20176;-86
2022/08/22 03:45:02;;;;;;;6.55;5.32;;;20.90;59.50;;;;;;5026454;28;20191;-87
2022/08/22 03:47:56;;;;;;;5.78;4.50;;;20.90;59.30;;;;;;5028160;28;20685;-87
2022/08/22 03:50:37;;;;;;;5.60;4.50;;;20.90;58.70;;;;;;5029486;28;20223;-87
2022/08/22 03:53:43;;;;;;;6.18;4.97;;;20.80;59.30;;;;;;5020956;28;20188;-87
2022/08/22 03:56:27;;;;;;;10.00;4.80;;;20.70;59.50;;;;;;5025845;28;20715;-87
2022/08/22 03:59:07;;;;;;;13.52;5.88;;;20.70;59.80;;;;;;5032602;28;20202;-86
2022/08/22 04:01:42;;;;;;;6.40;5.10;;;20.70;59.70;;;;;;5029631;28;20204;-87
2022/08/22 04:04:14;;;;;;;6.40;4.78;;;20.70;59.60;;;;;;5029574;28;20178;-86
2022/08/22 04:07:00;;;;;;;7.55;4.75;;;20.50;60.20;;;;;;5027462;28;20215;-86
2022/08/22 04:09:48;;;;;;;5.50;4.10;;;20.50;60.00;;;;;;5027070;28;20186;-87
2022/08/22 04:12:26;;;;;;;5.13;4.70;;;20.40;60.20;;;;;;5007416;28;20257;-86
2022/08/22 04:15:07;;;;;;;6.28;4.50;;;20.40;60.70;;;;;;5032386;28;20241;-89
2022/08/22 04:17:59;;;;;;;6.03;4.43;;;20.40;60.40;;;;;;5026264;28;20210;-86
2022/08/22 04:20:43;;;;;;;4.72;4.43;;;20.40;60.40;;;;;;5026153;28;20203;-87
2022/08/22 04:23:49;;;;;;;4.75;4.35;;;20.40;60.00;;;;;;5024001;28;20175;-86
2022/08/22 04:26:26;;;;;;;8.68;5.03;;;20.20;60.70;;;;;;5026124;28;20191;-86
2022/08/22 04:28:59;;;;;;;6.90;5.00;;;20.00;62.20;;;;;;5024534;28;20915;-86
2022/08/22 04:31:31;;;;;;;11.50;6.20;;;19.90;62.60;;;;;;5040565;28;20213;-86
2022/08/22 04:34:01;;;;;;;5.82;4.60;;;19.70;63.30;;;;;;5027371;28;20182;-85
2022/08/22 04:36:50;;;;;;;4.95;4.22;;;19.70;63.10;;;;;;5025555;28;20208;-86
2022/08/22 04:39:39;;;;;;;6.72;5.13;;;19.90;62.60;;;;;;5020959;28;20214;-86
2022/08/22 04:42:43;;;;;;;5.57;4.88;;;20.00;61.90;;;;;;5023943;28;20414;-86
2022/08/22 04:45:14;;;;;;;6.47;5.05;;;20.10;62.20;;;;;;5018542;28;20205;-86
2022/08/22 04:47:50;;;;;;;7.28;5.13;;;20.10;62.00;;;;;;5027696;28;20576;-86
2022/08/22 04:50:24;;;;;;;6.25;5.00;;;20.10;62.20;;;;;;5024634;28;20219;-86
2022/08/22 04:53:11;;;;;;;5.60;4.90;;;20.20;62.30;;;;;;5024607;28;20238;-87
2022/08/22 04:56:10;;;;;;;5.40;4.90;;;20.20;61.50;;;;;;5025517;28;20191;-87
2022/08/22 04:58:47;;;;;;;7.50;4.95;;;20.20;61.90;;;;;;5024861;28;20189;-86
2022/08/22 05:01:22;;;;;;;7.35;4.90;;;20.30;61.10;;;;;;5029892;28;20369;-87
2022/08/22 05:04:03;;;;;;;6.00;5.00;;;20.20;61.40;;;;;;5022839;28;20211;-87
2022/08/22 05:06:33;;;;;;;5.40;4.55;;;20.20;61.20;;;;;;5021573;28;20789;-85
2022/08/22 05:09:04;;;;;;;6.10;4.78;;;20.20;61.20;;;;;;5020748;28;20541;-86
2022/08/22 05:11:32;;;;;;;5.03;4.63;;;20.10;61.40;;;;;;5027387;28;20623;-86
2022/08/22 05:14:24;;;;;;;9.90;4.82;;;20.20;61.80;;;;;;5025715;28;20231;-85
2022/08/22 05:16:53;;;;;;;6.00;4.85;;;20.20;61.50;;;;;;5019275;28;20213;-86
2022/08/22 05:19:28;;;;;;;4.97;4.45;;;20.30;61.20;;;;;;5023979;28;20526;-86
2022/08/22 05:21:55;;;;;;;5.22;4.43;;;20.30;61.00;;;;;;5023987;28;20191;-86
2022/08/22 05:24:41;;;;;;;5.72;4.70;;;20.30;61.50;;;;;;5024688;28;20222;-86
2022/08/22 05:27:19;;;;;;;6.40;4.72;;;20.20;61.70;;;;;;5022670;28;20740;-86
2022/08/22 05:29:47;;;;;;;5.20;4.70;;;20.20;61.30;;;;;;5021559;28;20286;-85
2022/08/22 05:32:27;;;;;;;4.68;4.22;;;20.00;61.50;;;;;;5019977;28;20205;-85
2022/08/22 05:34:58;;;;;;;5.50;4.80;;;20.00;61.60;;;;;;5036750;28;20194;-84
2022/08/22 05:37:47;;;;;;;5.22;4.68;;;19.90;62.50;;;;;;5041919;28;20190;-83
2022/08/22 05:40:41;;;;;;;5.43;4.50;;;19.80;62.80;;;;;;5043924;28;20226;-83
2022/08/22 05:43:11;;;;;;;5.32;4.88;;;19.60;63.80;;;;;;5030893;28;20210;-85
2022/08/22 05:45:43;;;;;;;6.50;4.55;;;19.60;64.00;;;;;;5043651;28;20185;-82
2022/08/22 05:48:41;;;;;;;6.05;5.00;;;19.70;62.50;;;;;;5047910;28;20276;-83
2022/08/22 05:51:20;;;;;;;6.90;5.20;;;20.00;62.00;;;;;;5032347;28;20249;-86
2022/08/22 05:53:52;;;;;;;6.22;5.28;;;20.20;60.60;;;;;;5026695;28;20195;-86
2022/08/22 05:56:34;;;;;;;9.95;5.88;;;20.40;58.30;;;;;;5026479;28;20187;-87
2022/08/22 05:59:22;;;;;;;9.27;5.32;;;20.50;58.40;;;;;;5024989;28;20169;-86
2022/08/22 06:01:54;;;;;;;7.90;5.55;;;20.50;57.10;;;;;;5026214;28;20156;-86
2022/08/22 06:04:44;;;;;;;8.18;5.35;;;20.50;57.40;;;;;;5025836;28;20184;-87
2022/08/22 06:07:27;;;;;;;5.50;5.00;;;20.30;58.20;;;;;;5024941;28;20205;-85
2022/08/22 06:10:24;;;;;;;5.65;5.15;;;20.10;60.70;;;;;;5024022;28;20227;-86
2022/08/22 06:13:01;;;;;;;6.47;4.88;;;20.10;62.80;;;;;;5023366;28;20175;-87
2022/08/22 06:15:55;;;;;;;6.90;4.90;;;20.10;64.10;;;;;;5025597;28;20205;-85
2022/08/22 06:18:25;;;;;;;7.38;5.18;;;20.30;62.60;;;;;;5016548;28;20616;-88
2022/08/22 06:20:58;;;;;;;5.18;4.68;;;20.50;60.40;;;;;;5023868;28;20216;-87
2022/08/22 06:23:38;;;;;;;5.65;5.15;;;20.60;58.00;;;;;;5023114;28;20663;-87
2022/08/22 06:26:05;;;;;;;5.38;4.95;;;20.80;56.10;;;;;;5022916;28;20215;-87
2022/08/22 06:28:42;;;;;;;7.93;5.28;;;20.80;55.90;;;;;;5025455;28;20212;-87
2022/08/22 06:31:18;;;;;;;6.47;5.53;;;20.70;56.40;;;;;;5025768;28;20656;-87
2022/08/22 06:33:47;;;;;;;7.07;5.53;;;20.60;56.20;;;;;;5025402;28;20179;-87
2022/08/22 06:36:29;;;;;;;6.80;5.50;;;20.60;55.70;;;;;;5025326;28;20218;-85
2022/08/22 06:39:05;;;;;;;6.00;5.40;;;20.60;56.20;;;;;;5028330;28;20187;-89
2022/08/22 06:41:35;;;;;;;6.35;5.30;;;20.60;56.30;;;;;;5029201;28;20554;-86
2022/08/22 06:44:03;;;;;;;6.32;5.30;;;20.70;56.20;;;;;;5022773;28;20255;-86
2022/08/22 06:46:32;;;;;;;5.65;4.85;;;20.80;55.50;;;;;;5022583;28;20181;-86
2022/08/22 06:48:59;;;;;;;8.43;5.30;;;21.00;55.00;;;;;;5021126;28;20220;-88
2022/08/22 06:51:27;;;;;;;6.10;5.28;;;21.00;54.50;;;;;;5024358;28;20584;-87
2022/08/22 06:53:57;;;;;;;6.90;5.30;;;21.10;54.50;;;;;;5022869;28;20199;-85
2022/08/22 06:56:28;;;;;;;7.22;5.10;;;21.20;53.80;;;;;;5024212;28;20290;-88
2022/08/22 06:58:57;;;;;;;7.25;5.18;;;21.20;53.10;;;;;;5024515;28;20184;-85
2022/08/22 07:01:29;;;;;;;6.53;5.43;;;21.20;53.20;;;;;;5008298;28;20219;-86
2022/08/22 07:04:03;;;;;;;5.30;4.80;;;21.20;52.40;;;;;;5026904;28;20227;-85
2022/08/22 07:06:42;;;;;;;6.35;5.85;;;21.20;53.20;;;;;;5025567;28;20191;-86
2022/08/22 07:09:33;;;;;;;5.53;5.00;;;21.30;51.20;;;;;;5025096;28;20614;-86
2022/08/22 07:12:03;;;;;;;6.05;5.10;;;21.40;51.70;;;;;;5025560;28;20188;-85
2022/08/22 07:14:38;;;;;;;5.65;4.85;;;21.50;51.80;;;;;;5022799;28;20191;-84
2022/08/22 07:17:08;;;;;;;5.70;5.10;;;21.60;51.70;;;;;;5024917;28;20420;-87
2022/08/22 07:19:38;;;;;;;6.03;5.40;;;21.60;51.40;;;;;;5029783;28;20220;-87
2022/08/22 07:22:16;;;;;;;9.68;5.95;;;21.70;51.60;;;;;;5029409;28;20551;-86
2022/08/22 07:25:13;;;;;;;5.90;5.30;;;21.70;50.50;;;;;;5026796;28;20195;-87
2022/08/22 07:27:41;;;;;;;11.02;5.47;;;21.80;50.20;;;;;;5024665;28;20223;-87
2022/08/22 07:30:10;;;;;;;5.78;5.28;;;22.00;49.60;;;;;;5027231;28;20205;-86
2022/08/22 07:32:40;;;;;;;7.57;5.60;;;22.00;49.60;;;;;;5030506;28;20243;-86
2022/08/22 07:35:14;;;;;;;5.10;4.60;;;22.10;49.20;;;;;;5030354;28;20661;-85
2022/08/22 07:37:54;;;;;;;6.13;5.13;;;22.10;49.40;;;;;;5022431;28;20248;-84
2022/08/22 07:40:26;;;;;;;5.90;4.90;;;22.00;49.10;;;;;;5026571;28;20207;-86
2022/08/22 07:43:18;;;;;;;5.68;4.93;;;22.00;49.60;;;;;;5026941;28;20189;-85
2022/08/22 07:46:12;;;;;;;5.13;4.70;;;22.00;50.30;;;;;;5015835;28;20303;-86
2022/08/22 07:48:45;;;;;;;6.68;4.97;;;22.10;51.40;;;;;;5018968;28;20208;-85
2022/08/22 07:51:17;;;;;;;5.93;4.93;;;22.30;50.60;;;;;;5029692;28;20216;-86
2022/08/22 07:54:00;;;;;;;11.13;5.57;;;22.40;49.80;;;;;;5021902;28;20233;-86
2022/08/22 07:56:30;;;;;;;5.85;5.05;;;22.60;48.90;;;;;;5023779;28;20196;-87
2022/08/22 07:59:02;;;;;;;5.68;5.05;;;22.70;49.30;;;;;;5028575;28;20181;-84
2022/08/22 08:01:28;;;;;;;7.60;5.28;;;22.80;48.70;;;;;;5023323;28;20205;-84
2022/08/22 08:04:00;;;;;;;8.00;5.35;;;23.00;48.00;;;;;;5028720;28;20189;-87
2022/08/22 08:06:27;;;;;;;5.63;5.03;;;22.90;47.40;;;;;;5026378;28;20192;-86
2022/08/22 08:08:55;;;;;;;10.32;5.63;;;22.90;47.60;;;;;;5030121;28;20668;-85
2022/08/22 08:11:23;;;;;;;5.50;4.70;;;23.00;47.70;;;;;;5029891;28;20203;-87
2022/08/22 08:13:54;;;;;;;5.85;4.97;;;23.10;47.40;;;;;;5023663;28;20177;-86
2022/08/22 08:16:26;;;;;;;6.13;5.40;;;23.20;47.60;;;;;;5027848;28;20599;-85
2022/08/22 08:18:56;;;;;;;6.35;5.40;;;23.20;47.30;;;;;;5024224;28;20255;-87
2022/08/22 08:21:24;;;;;;;5.85;5.18;;;23.20;47.20;;;;;;5029541;28;20237;-84
2022/08/22 08:23:52;;;;;;;5.60;5.00;;;23.20;47.00;;;;;;5028652;28;20181;-84
2022/08/22 08:26:26;;;;;;;6.68;5.72;;;23.30;46.40;;;;;;5025210;28;20186;-85
2022/08/22 08:28:55;;;;;;;7.32;5.40;;;23.30;46.30;;;;;;5033013;28;20185;-85
2022/08/22 08:31:36;;;;;;;7.20;5.53;;;23.50;46.30;;;;;;5025387;28;20204;-84
2022/08/22 08:34:10;;;;;;;5.90;4.78;;;23.70;45.30;;;;;;5028958;28;20573;-86
2022/08/22 08:36:47;;;;;;;5.40;4.88;;;24.00;44.90;;;;;;5027960;28;20193;-86
2022/08/22 08:39:36;;;;;;;6.75;5.00;;;24.20;44.10;;;;;;5025978;28;20243;-86
2022/08/22 08:42:11;;;;;;;6.65;5.80;;;24.40;43.10;;;;;;5028886;28;20200;-85
2022/08/22 08:44:57;;;;;;;6.03;5.43;;;24.70;42.40;;;;;;5025001;28;20177;-89
2022/08/22 08:48:10;;;;;;;7.93;5.10;;;24.90;41.50;;;;;;5029611;28;20692;-85
2022/08/22 08:50:58;;;;;;;5.72;5.15;;;24.90;41.40;;;;;;5025494;28;20684;-85
2022/08/22 08:53:29;;;;;;;5.90;5.25;;;24.90;41.30;;;;;;5027481;28;20213;-85
2022/08/22 08:56:05;;;;;;;6.53;5.28;;;25.00;41.40;;;;;;5025402;28;20192;-86
2022/08/22 08:58:33;;;;;;;6.45;5.20;;;25.20;40.50;;;;;;5028779;28;20188;-85
2022/08/22 09:01:15;;;;;;;5.85;5.35;;;25.30;40.60;;;;;;5025583;28;20236;-86
2022/08/22 09:03:46;;;;;;;7.30;5.50;;;25.50;39.50;;;;;;5024251;28;20763;-85
2022/08/22 09:06:37;;;;;;;6.03;5.22;;;25.50;39.20;;;;;;5027287;28;20189;-85
2022/08/22 09:09:19;;;;;;;6.00;5.15;;;25.50;39.30;;;;;;5033193;28;20198;-85
2022/08/22 09:12:03;;;;;;;6.97;5.30;;;25.60;39.10;;;;;;5030611;28;20212;-86
2022/08/22 09:14:55;;;;;;;5.75;5.25;;;25.90;39.10;;;;;;5028748;28;20667;-86
2022/08/22 09:17:36;;;;;;;5.90;5.30;;;26.10;38.90;;;;;;5033385;28;20200;-85
2022/08/22 09:20:38;;;;;;;6.85;5.43;;;26.30;38.80;;;;;;5028428;28;20218;-86
2022/08/22 09:23:22;;;;;;;13.15;11.82;;;26.50;38.70;;;;;;5025990;28;20200;-87
2022/08/22 09:26:08;;;;;;;8.13;5.50;;;26.60;38.30;;;;;;5031271;28;20185;-85
2022/08/22 09:28:44;;;;;;;11.43;5.65;;;26.70;37.40;;;;;;5030465;28;20704;-86
2022/08/22 09:31:31;;;;;;;10.82;6.32;;;26.90;37.40;;;;;;5033908;28;20212;-85
2022/08/22 09:34:28;;;;;;;5.88;5.38;;;27.20;37.80;;;;;;5025676;28;20193;-85
2022/08/22 09:37:08;;;;;;;10.77;6.10;;;27.10;36.70;;;;;;5032330;28;20199;-84
2022/08/22 09:39:37;;;;;;;7.68;5.53;;;27.20;36.70;;;;;;5031704;28;20201;-83
2022/08/22 09:42:32;;;;;;;6.35;5.75;;;27.30;36.70;;;;;;5030961;28;20200;-84
2022/08/22 09:45:10;;;;;;;6.38;5.15;;;27.50;36.40;;;;;;4998800;28;20225;-85
2022/08/22 09:47:45;;;;;;;6.85;5.38;;;27.70;35.90;;;;;;5027651;28;20200;-85
2022/08/22 09:50:19;;;;;;;8.02;5.95;;;27.80;35.50;;;;;;5034452;28;20753;-84
2022/08/22 09:53:23;;;;;;;5.90;5.35;;;28.00;35.80;;;;;;5027389;28;20271;-85
2022/08/22 09:56:05;;;;;;;5.85;5.45;;;28.20;35.50;;;;;;5033939;28;20244;-86
2022/08/22 09:58:46;;;;;;;5.78;4.93;;;28.50;34.20;;;;;;5046948;28;20222;-85
2022/08/22 10:01:24;;;;;;;7.20;5.82;;;28.30;33.90;;;;;;5033941;28;20579;-86
2022/08/22 10:04:28;;;;;;;6.03;5.43;;;28.50;33.90;;;;;;5027551;28;20181;-86
2022/08/22 10:07:14;;;;;;;6.38;5.57;;;28.60;33.80;;;;;;5031982;28;20763;-86
2022/08/22 10:09:55;;;;;;;6.43;5.80;;;29.10;33.90;;;;;;5025301;28;20220;-84
2022/08/22 10:12:29;;;;;;;9.48;5.78;;;29.10;33.00;;;;;;5033115;28;20183;-85
2022/08/22 10:15:20;;;;;;;5.88;5.28;;;29.30;32.80;;;;;;5031482;28;20265;-85
2022/08/22 10:18:03;;;;;;;6.05;5.53;;;29.40;32.00;;;;;;5027026;28;20219;-85
2022/08/22 10:20:36;;;;;;;5.85;5.25;;;29.40;31.40;;;;;;5027233;28;20220;-87
2022/08/22 10:23:44;;;;;;;6.30;5.80;;;29.60;30.70;;;;;;5033176;28;20593;-86
2022/08/22 10:26:12;;;;;;;5.63;5.22;;;29.70;30.30;;;;;;5015384;28;20201;-86
2022/08/22 10:29:01;;;;;;;5.82;5.32;;;30.10;30.60;;;;;;5027868;28;20663;-86
2022/08/22 10:31:50;;;;;;;6.45;5.85;;;30.30;30.20;;;;;;5029548;28;20216;-85
2022/08/22 10:34:24;;;;;;;6.35;5.82;;;30.20;29.40;;;;;;5030602;28;20185;-85
2022/08/22 10:37:04;;;;;;;6.03;5.53;;;30.50;29.40;;;;;;5031596;28;20205;-84
2022/08/22 10:40:07;;;;;;;5.65;5.15;;;30.50;29.10;;;;;;5029709;28;20192;-84
2022/08/22 10:42:43;;;;;;;5.93;5.32;;;30.60;28.90;;;;;;5028884;28;20283;-85
2022/08/22 10:45:25;;;;;;;6.35;5.78;;;31.00;28.70;;;;;;5028070;28;20184;-86
2022/08/22 10:47:56;;;;;;;6.35;5.85;;;30.90;28.20;;;;;;5027497;28;20216;-86
2022/08/22 10:50:39;;;;;;;5.88;5.28;;;30.90;28.40;;;;;;5030036;28;20209;-86
2022/08/22 10:53:35;;;;;;;6.25;5.65;;;30.90;28.40;;;;;;5027067;28;20261;-86
2022/08/22 10:56:21;;;;;;;6.40;5.80;;;30.90;28.10;;;;;;5023097;28;20622;-86
2022/08/22 10:59:13;;;;;;;6.10;5.53;;;31.00;28.90;;;;;;4998092;28;20199;-87
2022/08/22 11:02:02;;;;;;;6.00;5.50;;;31.40;27.80;;;;;;5026381;28;20365;-86
2022/08/22 11:04:49;;;;;;;5.85;5.35;;;31.60;27.60;;;;;;5023266;28;20192;-86
2022/08/22 11:07:49;;;;;;;5.32;4.93;;;31.70;27.10;;;;;;5027623;28;20366;-86
2022/08/22 11:10:25;;;;;;;6.68;6.00;;;31.90;26.50;;;;;;5029260;28;20213;-86
2022/08/22 11:13:13;;;;;;;6.25;5.65;;;31.90;26.40;;;;;;5026698;28;20178;-85
2022/08/22 11:16:07;;;;;;;6.25;5.68;;;32.30;26.60;;;;;;5025912;28;20219;-86
2022/08/22 11:18:53;;;;;;;6.40;5.50;;;32.10;26.10;;;;;;5028228;28;20192;-85
2022/08/22 11:21:34;;;;;;;5.70;5.20;;;32.00;26.20;;;;;;5028659;28;20331;-86
2022/08/22 11:24:17;;;;;;;5.75;5.28;;;32.60;25.60;;;;;;5023508;28;20181;-84
2022/08/22 11:26:53;;;;;;;5.82;5.43;;;32.80;25.40;;;;;;5026373;28;20240;-85
2022/08/22 11:30:00;;;;;;;6.50;5.90;;;33.00;25.20;;;;;;5027072;28;20169;-86
2022/08/22 11:32:34;;;;;;;6.30;5.78;;;33.30;25.00;;;;;;5020574;28;20188;-85
2022/08/22 11:35:22;;;;;;;6.32;5.80;;;33.30;25.00;;;;;;5028090;28;20187;-86
2022/08/22 11:38:02;;;;;;;5.70;5.30;;;33.50;24.60;;;;;;5029498;28;20644;-86
2022/08/22 11:41:05;;;;;;;5.75;5.25;;;33.00;24.40;;;;;;5024713;28;20377;-85
2022/08/22 11:43:46;;;;;;;6.18;5.68;;;32.70;24.30;;;;;;5024968;28;20200;-85
2022/08/22 11:46:23;;;;;;;6.15;5.65;;;32.30;24.80;;;;;;5029901;28;20323;-86
2022/08/22 11:49:08;;;;;;;6.28;5.85;;;32.40;24.90;;;;;;5025366;28;20212;-87
2022/08/22 11:51:45;;;;;;;5.63;5.22;;;32.80;24.90;;;;;;5025184;28;20686;-86
2022/08/22 11:54:16;;;;;;;6.00;5.50;;;32.80;23.70;;;;;;5023997;28;20682;-86
2022/08/22 11:56:48;;;;;;;5.93;5.43;;;32.80;23.60;;;;;;5025157;28;20261;-84
2022/08/22 11:59:43;;;;;;;6.00;5.50;;;33.30;24.50;;;;;;5029766;28;20177;-87
2022/08/22 12:02:33;;;;;;;5.80;5.20;;;33.50;24.10;;;;;;4999285;28;20681;-86
2022/08/22 12:05:29;;;;;;;5.90;5.30;;;33.60;23.70;;;;;;5029196;28;20216;-85
2022/08/22 12:08:16;;;;;;;7.93;6.07;;;33.70;24.30;;;;;;5005709;28;20232;-86
2022/08/22 12:11:10;;;;;;;5.60;5.20;;;33.90;23.50;;;;;;5025346;28;20219;-86
2022/08/22 12:13:59;;;;;;;5.93;5.50;;;34.10;23.40;;;;;;5024676;28;20197;-85
2022/08/22 12:16:38;;;;;;;6.45;5.80;;;34.00;23.30;;;;;;5023072;28;20181;-87
2022/08/22 12:19:40;;;;;;;5.68;5.28;;;34.10;23.70;;;;;;5026059;28;20173;-86
2022/08/22 12:22:44;;;;;;;6.05;5.65;;;34.50;23.20;;;;;;5027518;28;20177;-84
2022/08/22 12:25:29;;;;;;;6.43;5.78;;;34.50;22.80;;;;;;5026891;28;20181;-86
2022/08/22 12:28:16;;;;;;;6.88;6.45;;;35.00;22.80;;;;;;5022057;28;20684;-87
2022/08/22 12:30:57;;;;;;;6.30;5.80;;;35.10;22.90;;;;;;5027012;28;20208;-87
2022/08/22 12:33:25;;;;;;;6.22;5.82;;;35.20;22.40;;;;;;5027883;28;20272;-86
2022/08/22 12:36:06;;;;;;;6.97;6.40;;;34.80;23.20;;;;;;5031342;28;20179;-87
2022/08/22 12:39:10;;;;;;;6.82;6.15;;;35.00;22.80;;;;;;5025198;28;20177;-85
2022/08/22 12:42:17;;;;;;;6.30;5.90;;;35.00;23.00;;;;;;5027694;28;20400;-86
2022/08/22 12:45:09;;;;;;;7.28;6.32;;;35.10;22.80;;;;;;5012629;28;20287;-85
2022/08/22 12:48:01;;;;;;;6.97;6.47;;;35.20;22.30;;;;;;5033488;28;20207;-85
2022/08/22 12:50:46;;;;;;;6.25;5.75;;;35.00;22.70;;;;;;5029634;28;20534;-85
2022/08/22 12:53:24;;;;;;;6.93;6.18;;;35.00;22.90;;;;;;5031900;28;20178;-85
2022/08/22 12:56:33;;;;;;;6.88;6.38;;;35.30;22.30;;;;;;5029327;28;20549;-85
2022/08/22 12:59:13;;;;;;;6.93;6.35;;;35.70;21.80;;;;;;5028849;28;20179;-85
2022/08/22 13:01:43;;;;;;;6.70;6.20;;;35.80;21.60;;;;;;5034174;28;20212;-85
2022/08/22 13:04:15;;;;;;;6.88;6.38;;;35.90;21.50;;;;;;5027715;28;20184;-85
2022/08/22 13:06:41;;;;;;;6.85;6.28;;;36.20;21.70;;;;;;5030468;28;20185;-86
2022/08/22 13:09:29;;;;;;;6.93;6.43;;;36.00;21.90;;;;;;5036841;28;20384;-85
2022/08/22 13:12:00;;;;;;;6.90;6.40;;;35.90;21.40;;;;;;5030368;28;20180;-84
2022/08/22 13:14:30;;;;;;;6.82;6.28;;;35.70;21.50;;;;;;5030282;28;20283;-84
2022/08/22 13:16:59;;;;;;;6.60;6.00;;;35.50;21.40;;;;;;5034022;28;20221;-85
2022/08/22 13:19:30;;;;;;;6.53;6.05;;;35.70;21.50;;;;;;5028408;28;20185;-85
2022/08/22 13:22:31;;;;;;;7.38;6.78;;;36.30;21.20;;;;;;5032460;28;20185;-85
2022/08/22 13:25:05;;;;;;;7.53;6.93;;;36.50;21.30;;;;;;4999231;28;20209;-85
2022/08/22 13:27:43;;;;;;;6.78;6.28;;;36.70;21.00;;;;;;5031049;28;20262;-85
2022/08/22 13:30:20;;;;;;;7.28;6.78;;;36.80;20.80;;;;;;5030791;28;20728;-85
2022/08/22 13:32:49;;;;;;;7.03;6.53;;;36.30;21.40;;;;;;5031496;28;20583;-85
2022/08/22 13:35:38;;;;;;;7.43;6.93;;;36.30;21.00;;;;;;5028446;28;20263;-85
2022/08/22 13:38:15;;;;;;;7.22;6.47;;;36.60;20.70;;;;;;5029669;28;20208;-85
2022/08/22 13:40:45;;;;;;;6.65;6.22;;;36.60;20.80;;;;;;5027291;28;20211;-84
2022/08/22 13:43:17;;;;;;;7.10;6.70;;;36.50;20.60;;;;;;5030584;28;20192;-85
2022/08/22 13:45:53;;;;;;;6.70;6.30;;;36.50;20.90;;;;;;5027824;28;20282;-85
2022/08/22 13:48:22;;;;;;;7.00;6.50;;;37.00;21.00;;;;;;5028231;28;20250;-85
2022/08/22 13:51:06;;;;;;;7.32;6.72;;;37.10;20.80;;;;;;5029625;28;20230;-85
2022/08/22 13:53:40;;;;;;;7.40;7.00;;;37.20;20.40;;;;;;5031544;28;20176;-85
2022/08/22 13:56:24;;;;;;;7.82;7.22;;;37.70;20.10;;;;;;5027675;28;20588;-85
2022/08/22 13:58:56;;;;;;;7.68;7.03;;;37.50;20.20;;;;;;5029297;28;20188;-85